Huvudsida
METAR-TAF:

METAR-TAF

Flygplatser :

Dawadmi, Saudiarabien

latitud: 24-26-59N, longitud: 044-07-16E, höjd: 922 m

Aktuellt väderrapport

Denna rapport gjordes för 1 timme och 20 minuter sedan, klockan 18:00 UTC
Vind 8 kt från ost/sydost
Temperatur 21°C
Fuktighet 18%
Tryck 1016 hPa
Sikt 10 km eller mer
Inga moln under 1 500 m eller inga cumulonimbus

METAR: OEDM 281800Z 12008KT CAVOK 21/M04 Q1016

Tid: 22:20 (19:20 UTC)

Väderprognos

Denna rapport gjordes för 14 timmar och 20 minuter sedan, klockan 05:00 UTC
Prognos gäller från 28 kl. 06 UTC till 28 kl. 20 UTC
Vind 12 kt från syd
Sikt: 7000 m
Temporärt
från 28 kl. 06 UTC till 28 kl. 12 UTC
Sikt: 4000 m
utbrett stoft
Blir
från 28 kl. 16 UTC till 28 kl. 18 UTC
Vind 10 kt från sydost

TAF: OEDM 280500Z 2806/2820 18012KT 7000 NSC TEMPO 2806/2812 4000 DU BECMG 2816/2818 14010KT

Aktuella väderrapporter och prognoser från 4000 flygplatser (METAR- och TAF-rapporter).

De tillgängliga stationerna syns som gula och röda prickar på kartan.

För musen över prickarna för att se namnen på stationerna.

Klicka sedan för att få väderrapporter och prognoser.

För att ändra kartan: Klicka på de gröna knapparna med ett svart kors på för att zooma in; den gröna knappen med ett streck på för att zooma ut; eller på de gröna pilarna för angränsande kartor.


METAR-TAF: